Terminal Aerodrome Forecast
Issued by NWS

Home | Current Version | Previous Version | Text Only | Print | Product List | Glossary On
Versions: 1 2 3 4 5 6 7 8 9 10 11 12 13 14 15 16 17 18 19 20 21 22 23 24 25 26 27 28 29 30 31 32
000
FTUS43 KDMX 241127
TAFOTM
TAF
KOTM 241127Z 2412/2512 18010KT P6SM SCT250 WS020/21045KT
     FM241500 20014G20KT P6SM BKN200
     FM241800 21013G19KT P6SM VCSH OVC060
     FM242200 19007KT 4SM -SHRA OVC025
     FM250300 11008KT 2SM -SHRA VCTS OVC007CB
     FM250600 10009KT 3SM SHRA OVC007=

USA.gov is the U.S. government's official web portal to all federal, state and local government web resources and services.